createdAt,value
2023-04-27T00:05:23.519Z,18.31
2023-04-27T00:15:24.915Z,18.26
2023-04-27T00:25:26.201Z,18.24
2023-04-27T00:35:27.547Z,18.25
2023-04-27T00:45:28.876Z,18.22
2023-04-27T00:55:31.788Z,18.22
2023-04-27T01:05:33.094Z,18.17
2023-04-27T01:15:34.363Z,18.17
2023-04-27T01:25:35.645Z,18.16
2023-04-27T01:35:36.879Z,18.15
2023-04-27T01:45:38.269Z,18.13
2023-04-27T01:55:39.620Z,18.14
2023-04-27T02:05:40.942Z,18.12
2023-04-27T02:15:42.288Z,18.07
2023-04-27T02:25:43.546Z,18.06
2023-04-27T02:35:44.819Z,18.09
2023-04-27T02:45:46.110Z,18.06
2023-04-27T02:55:47.365Z,18.08
2023-04-27T03:05:48.683Z,18.08
2023-04-27T03:15:50.002Z,17.99
2023-04-27T03:25:51.296Z,18.06
2023-04-27T03:35:52.577Z,18.02
2023-04-27T03:45:53.960Z,18.03
2023-04-27T03:55:55.282Z,18.11
2023-04-27T04:05:57.791Z,18.12
2023-04-27T04:15:59.071Z,18.08
2023-04-27T04:26:02.897Z,18.13
2023-04-27T04:36:04.209Z,18.26
2023-04-27T04:46:05.653Z,18.34
2023-04-27T04:56:07.069Z,18.47
2023-04-27T05:06:08.405Z,18.56
2023-04-27T05:16:16.407Z,18.74
2023-04-27T05:26:23.920Z,19.02
2023-04-27T05:36:31.918Z,19.09
2023-04-27T05:46:40.859Z,19.11
2023-04-27T05:56:48.882Z,19.28
2023-04-27T06:06:56.859Z,19.43
2023-04-27T06:17:04.870Z,19.58
2023-04-27T06:27:12.881Z,19.73
2023-04-27T06:47:42.972Z,19.99
2023-04-27T06:57:45.410Z,20.15
2023-04-27T07:07:46.673Z,20.20
2023-04-27T07:17:54.897Z,20.16
2023-04-27T07:28:02.936Z,20.18
2023-04-27T07:38:10.872Z,20.21
2023-04-27T07:48:19.079Z,20.06
2023-04-27T07:58:28.299Z,20.00
2023-04-27T08:08:35.888Z,20.00
2023-04-27T08:18:44.050Z,19.96
2023-04-27T08:28:51.952Z,19.90
2023-04-27T08:38:59.966Z,19.99
2023-04-27T08:49:08.886Z,19.93
2023-04-27T08:59:17.395Z,19.87
2023-04-27T09:09:25.951Z,19.84
2023-04-27T09:19:33.952Z,19.84
2023-04-27T09:29:41.897Z,19.82
2023-04-27T09:39:49.934Z,19.79
2023-04-27T09:49:57.907Z,19.73
2023-04-27T10:00:05.934Z,19.76
2023-04-27T10:10:14.992Z,19.75
2023-04-27T10:20:25.267Z,19.73
2023-04-27T10:30:33.076Z,19.73
2023-04-27T10:40:42.872Z,19.66
2023-04-27T10:50:48.590Z,19.67
2023-04-27T11:01:03.529Z,19.62
2023-04-27T11:11:05.414Z,19.59
2023-04-27T11:21:12.952Z,19.58
2023-04-27T11:31:20.967Z,19.55
2023-04-27T11:41:28.977Z,19.43
2023-04-27T11:51:36.911Z,19.48
2023-04-27T12:01:45.984Z,19.48
2023-04-27T12:11:53.956Z,19.43
2023-04-27T12:32:28.944Z,19.47
2023-04-27T12:42:37.438Z,19.44
2023-04-27T12:52:47.898Z,19.37
2023-04-27T13:02:53.466Z,19.41
2023-04-27T13:13:02.087Z,19.43
2023-04-27T13:23:09.329Z,19.52
2023-04-27T13:33:22.703Z,19.56
2023-04-27T13:43:28.208Z,19.53
2023-04-27T13:53:38.940Z,19.52
2023-04-27T14:03:44.120Z,19.52
2023-04-27T14:13:51.972Z,19.57
2023-04-27T14:23:59.935Z,19.60
2023-04-27T14:34:05.264Z,19.57
2023-04-27T14:44:16.745Z,19.58
2023-04-27T14:54:25.942Z,19.53
2023-04-27T15:04:29.084Z,19.53
2023-04-27T15:24:52.033Z,19.51
2023-04-27T15:35:00.056Z,19.48
2023-04-27T15:45:09.856Z,19.47
2023-04-27T16:37:18.276Z,19.42
2023-04-27T17:39:44.207Z,19.25
2023-04-27T17:49:48.995Z,19.24
2023-04-27T17:59:50.374Z,19.21
2023-04-27T18:09:51.725Z,19.21
2023-04-27T18:20:04.388Z,19.15
2023-04-27T18:30:09.529Z,19.13
2023-04-27T18:40:10.941Z,19.09
2023-04-27T18:50:12.210Z,19.09
2023-04-27T19:00:13.714Z,19.00
2023-04-27T19:10:15.053Z,18.95
2023-04-27T19:20:16.696Z,18.97
2023-04-27T19:30:18.093Z,19.02
2023-04-27T19:40:19.478Z,18.99
2023-04-27T19:50:20.828Z,18.95
2023-04-27T20:00:22.098Z,18.97
2023-04-27T20:10:23.376Z,18.94
2023-04-27T20:20:24.655Z,18.89
2023-04-27T20:30:25.981Z,18.89
2023-04-27T20:40:27.234Z,18.88
2023-04-27T20:50:31.425Z,18.84
2023-04-27T21:00:32.713Z,18.82
2023-04-27T21:10:34.195Z,18.81
2023-04-27T21:20:35.492Z,18.78
2023-04-27T21:30:36.804Z,18.78
2023-04-27T21:40:38.186Z,18.76
2023-04-27T21:50:39.476Z,18.77
2023-04-27T22:00:40.810Z,18.79
2023-04-27T22:10:42.097Z,18.75
2023-04-27T22:20:43.401Z,18.73
2023-04-27T22:30:44.694Z,18.70
2023-04-27T22:40:45.972Z,18.68
2023-04-27T22:50:47.312Z,18.69
2023-04-27T23:00:48.690Z,18.66
2023-04-27T23:10:49.976Z,18.66
2023-04-27T23:20:51.281Z,18.63
2023-04-27T23:30:52.558Z,18.68
2023-04-27T23:40:53.873Z,18.76
2023-04-27T23:50:57.582Z,18.79
